createdAt,value
2018-12-22T00:00:31.830Z,100713.71
2018-12-22T00:03:01.387Z,100719.53
2018-12-22T00:05:30.944Z,100709.68
2018-12-22T00:08:00.516Z,100709.68
2018-12-22T00:10:30.158Z,100703.67
2018-12-22T00:12:59.736Z,100700.14
2018-12-22T00:15:29.361Z,100698.30
2018-12-22T00:17:58.916Z,100698.30
2018-12-22T00:20:28.361Z,100700.14
2018-12-22T00:22:57.953Z,100695.30
2018-12-22T00:25:27.572Z,100684.75
2018-12-22T00:27:57.198Z,100683.56
2018-12-22T00:30:26.737Z,100684.91
2018-12-22T00:32:56.363Z,100682.59
2018-12-22T00:35:25.860Z,100678.22
2018-12-22T00:37:55.454Z,100678.42
2018-12-22T00:40:25.041Z,100675.39
2018-12-22T00:42:54.550Z,100676.22
2018-12-22T00:45:24.186Z,100676.58
2018-12-22T00:47:53.633Z,100673.55
2018-12-22T00:50:23.344Z,100678.75
2018-12-22T00:52:52.893Z,100674.88
2018-12-22T00:55:22.380Z,100674.22
2018-12-22T00:57:51.878Z,100681.27
2018-12-22T01:00:21.532Z,100675.91
2018-12-22T01:02:51.078Z,100683.60
2018-12-22T01:05:20.732Z,100671.89
2018-12-22T01:07:50.496Z,100666.69
2018-12-22T01:10:20.182Z,100662.51
2018-12-22T01:12:49.764Z,100663.18
2018-12-22T01:15:19.317Z,100653.95
2018-12-22T01:17:49.183Z,100662.16
2018-12-22T01:20:18.778Z,100669.37
2018-12-22T01:22:48.401Z,100663.17
2018-12-22T01:25:18.112Z,100670.86
2018-12-22T01:27:47.748Z,100673.73
2018-12-22T01:30:17.380Z,100672.20
2018-12-22T01:32:47.042Z,100673.52
2018-12-22T01:35:16.551Z,100677.56
2018-12-22T01:37:46.161Z,100675.20
2018-12-22T01:40:15.820Z,100672.36
2018-12-22T01:42:45.416Z,100670.84
2018-12-22T01:45:15.017Z,100669.34
2018-12-22T01:47:44.548Z,100669.86
2018-12-22T01:50:14.194Z,100671.87
2018-12-22T01:52:43.804Z,100649.09
2018-12-22T01:55:13.422Z,100646.27
2018-12-22T01:57:42.949Z,100644.73
2018-12-22T02:00:12.432Z,100644.92
2018-12-22T02:02:42.062Z,100643.75
2018-12-22T02:05:11.780Z,100635.20
2018-12-22T02:07:41.250Z,100630.66
2018-12-22T02:10:10.881Z,100615.09
2018-12-22T02:12:40.417Z,100609.23
2018-12-22T02:15:09.901Z,100606.89
2018-12-22T02:17:39.444Z,100606.23
2018-12-22T02:20:09.113Z,100600.36
2018-12-22T02:22:38.685Z,100589.48
2018-12-22T02:25:08.365Z,100584.95
2018-12-22T02:27:37.944Z,100589.80
2018-12-22T02:30:07.754Z,100580.93
2018-12-22T02:32:37.271Z,100579.27
2018-12-22T02:35:06.763Z,100563.00
2018-12-22T02:37:36.422Z,100568.70
2018-12-22T02:40:07.418Z,100559.49
2018-12-22T02:42:36.973Z,100563.52
2018-12-22T02:45:06.861Z,100568.36
2018-12-22T02:47:36.441Z,100577.57
2018-12-22T02:50:06.382Z,100564.17
2018-12-22T02:52:35.997Z,100560.34
2018-12-22T02:55:05.750Z,100566.69
2018-12-22T02:57:35.244Z,100570.38
2018-12-22T03:00:06.281Z,100578.42
2018-12-22T03:02:35.847Z,100593.46
2018-12-22T03:05:05.539Z,100585.11
2018-12-22T03:07:35.126Z,100571.88
2018-12-22T03:10:05.197Z,100574.05
2018-12-22T03:12:34.762Z,100567.70
2018-12-22T03:15:04.633Z,100578.58
2018-12-22T03:17:34.120Z,100573.22
2018-12-22T03:20:03.669Z,100573.06
2018-12-22T03:22:33.182Z,100570.19
2018-12-22T03:25:02.757Z,100558.65
2018-12-22T03:27:32.258Z,100559.33
2018-12-22T03:30:01.781Z,100563.34
2018-12-22T03:32:31.490Z,100569.53
2018-12-22T03:35:01.096Z,100558.81
2018-12-22T03:37:30.650Z,100566.53
2018-12-22T03:40:00.262Z,100564.36
2018-12-22T03:42:29.813Z,100573.38
2018-12-22T03:44:59.305Z,100573.38
2018-12-22T03:47:28.890Z,100570.03
2018-12-22T03:49:58.409Z,100564.36
2018-12-22T03:52:28.040Z,100562.16
2018-12-22T03:54:57.621Z,100563.02
2018-12-22T03:57:27.173Z,100567.87
2018-12-22T03:59:56.740Z,100566.69
2018-12-22T04:02:26.358Z,100559.48
2018-12-22T04:04:55.938Z,100556.48
2018-12-22T04:07:25.434Z,100548.45
2018-12-22T04:09:54.998Z,100545.42
2018-12-22T04:12:24.555Z,100538.56
2018-12-22T04:14:54.358Z,100528.87
2018-12-22T04:17:23.942Z,100526.67
2018-12-22T04:19:53.566Z,100527.53
2018-12-22T04:22:23.162Z,100534.22
2018-12-22T04:24:54.297Z,100548.61
2018-12-22T04:27:23.966Z,100562.84
2018-12-22T04:29:53.660Z,100561.98
2018-12-22T04:32:23.285Z,100554.30
2018-12-22T04:34:52.861Z,100547.44
2018-12-22T04:37:22.337Z,100543.07
2018-12-22T04:39:51.966Z,100534.72
2018-12-22T04:42:21.496Z,100537.88
2018-12-22T04:44:50.924Z,100528.18
2018-12-22T04:47:20.451Z,100533.20
2018-12-22T04:49:50.130Z,100550.92
2018-12-22T04:52:19.661Z,100546.23
2018-12-22T04:54:49.306Z,100547.57
2018-12-22T04:57:18.812Z,100536.70
2018-12-22T04:59:48.350Z,100553.09
2018-12-22T05:02:17.978Z,100546.39
2018-12-22T05:04:48.533Z,100544.08
2018-12-22T05:07:18.254Z,100548.25
2018-12-22T05:09:47.877Z,100531.87
2018-12-22T05:12:17.421Z,100533.02
2018-12-22T05:14:46.957Z,100534.86
2018-12-22T05:17:16.537Z,100537.54
2018-12-22T05:19:46.096Z,100539.22
2018-12-22T05:22:15.634Z,100530.84
2018-12-22T05:24:45.261Z,100545.91
2018-12-22T05:27:14.839Z,100531.19
2018-12-22T05:29:51.744Z,100538.20
2018-12-22T05:32:16.008Z,100539.70
2018-12-22T05:34:45.490Z,100543.72
2018-12-22T05:37:15.084Z,100536.70
2018-12-22T05:39:44.715Z,100552.27
2018-12-22T05:42:14.313Z,100551.74
2018-12-22T05:44:43.853Z,100546.06
2018-12-22T05:47:13.336Z,100547.91
2018-12-22T05:49:42.905Z,100554.92
2018-12-22T05:52:12.481Z,100557.28
2018-12-22T05:54:42.056Z,100556.78
2018-12-22T05:57:11.638Z,100564.98
2018-12-22T05:59:41.228Z,100559.63
2018-12-22T06:02:10.846Z,100570.69
2018-12-22T06:04:40.464Z,100567.81
2018-12-22T06:07:10.153Z,100571.67
2018-12-22T06:09:39.770Z,100575.36
2018-12-22T06:12:09.436Z,100584.73
2018-12-22T06:14:38.934Z,100575.17
2018-12-22T06:17:08.496Z,100568.64
2018-12-22T06:19:38.037Z,100568.66
2018-12-22T06:22:07.608Z,100576.02
2018-12-22T06:24:37.092Z,100564.30
2018-12-22T06:27:06.637Z,100573.35
2018-12-22T06:29:36.213Z,100566.48
2018-12-22T06:32:05.797Z,100569.33
2018-12-22T06:34:35.442Z,100575.35
2018-12-22T06:37:05.080Z,100584.73
2018-12-22T06:39:34.712Z,100587.77
2018-12-22T06:42:04.293Z,100427.00
2018-12-22T06:44:33.921Z,100584.94
2018-12-22T06:47:03.384Z,100590.97
2018-12-22T06:49:33.017Z,100578.06
2018-12-22T06:52:02.669Z,100570.70
2018-12-22T06:54:32.193Z,100570.03
2018-12-22T06:57:01.820Z,100576.89
2018-12-22T06:59:31.348Z,100578.90
2018-12-22T07:02:00.985Z,100582.61
2018-12-22T07:04:30.565Z,100587.45
2018-12-22T07:07:00.049Z,100586.47
2018-12-22T07:09:29.673Z,100584.27
2018-12-22T07:11:59.356Z,100585.96
2018-12-22T07:14:29.016Z,100590.48
2018-12-22T07:16:58.518Z,100599.19
2018-12-22T07:19:28.088Z,100606.55
2018-12-22T07:21:57.577Z,100600.84
2018-12-22T07:24:27.217Z,100609.03
2018-12-22T07:26:56.853Z,100623.59
2018-12-22T07:29:26.437Z,100625.59
2018-12-22T07:31:55.959Z,100624.25
2018-12-22T07:34:25.696Z,100635.31
2018-12-22T07:36:55.388Z,100631.45
2018-12-22T07:39:25.125Z,100600.83
2018-12-22T07:41:54.661Z,100609.89
2018-12-22T07:44:24.202Z,100455.45
2018-12-22T07:46:53.733Z,100612.91
2018-12-22T07:49:23.244Z,100610.90
2018-12-22T07:51:52.827Z,100606.05
2018-12-22T07:54:22.444Z,100598.85
2018-12-22T07:56:52.069Z,100602.87
2018-12-22T07:59:21.692Z,100605.86
2018-12-22T08:01:51.401Z,100606.05
2018-12-22T08:04:20.968Z,100595.16
2018-12-22T08:06:50.425Z,100581.09
2018-12-22T08:09:20.137Z,100591.48
2018-12-22T08:11:49.592Z,100588.45
2018-12-22T08:14:19.133Z,100596.17
2018-12-22T08:16:48.737Z,100594.16
2018-12-22T08:19:18.321Z,100581.76
2018-12-22T08:21:47.896Z,100590.81
2018-12-22T08:24:17.485Z,100595.16
2018-12-22T08:26:47.081Z,100602.37
2018-12-22T08:29:16.671Z,100615.61
2018-12-22T08:31:46.245Z,100609.90
2018-12-22T08:34:15.777Z,100616.59
2018-12-22T08:36:45.469Z,100617.77
2018-12-22T08:39:15.085Z,100618.29
2018-12-22T08:41:44.636Z,100605.88
2018-12-22T08:44:14.260Z,100596.66
2018-12-22T08:46:43.804Z,100600.00
2018-12-22T08:49:13.409Z,100591.44
2018-12-22T08:51:42.989Z,100602.15
2018-12-22T08:54:12.596Z,100594.61
2018-12-22T08:56:42.198Z,100582.70
2018-12-22T08:59:11.788Z,100577.34
2018-12-22T09:01:41.357Z,100576.66
2018-12-22T09:04:10.941Z,100576.66
2018-12-22T09:06:40.470Z,100583.87
2018-12-22T09:09:10.025Z,100590.07
2018-12-22T09:11:39.509Z,100572.13
2018-12-22T09:14:09.016Z,100573.30
2018-12-22T09:16:38.592Z,100562.25
2018-12-22T09:19:08.313Z,100554.53
2018-12-22T09:21:37.915Z,100541.27
2018-12-22T09:24:07.539Z,100536.57
2018-12-22T09:26:37.220Z,100549.80
2018-12-22T09:29:06.776Z,100555.52
2018-12-22T09:31:36.453Z,100540.42
2018-12-22T09:34:13.220Z,100531.55
2018-12-22T09:36:37.681Z,100533.56
2018-12-22T09:39:08.478Z,100541.59
2018-12-22T09:41:38.057Z,100538.38
2018-12-22T09:44:07.592Z,100530.32
2018-12-22T09:46:37.239Z,100515.53
2018-12-22T09:49:06.775Z,100527.91
2018-12-22T09:51:36.428Z,100521.73
2018-12-22T09:54:05.929Z,100517.06
2018-12-22T09:56:35.585Z,100508.18
2018-12-22T09:59:06.492Z,100492.05
2018-12-22T10:01:36.257Z,100495.05
2018-12-22T10:04:05.850Z,100500.08
2018-12-22T10:06:35.448Z,100496.34
2018-12-22T10:09:06.341Z,100480.71
2018-12-22T10:11:35.945Z,100480.52
2018-12-22T10:14:05.708Z,100468.73
2018-12-22T10:16:35.269Z,100468.19
2018-12-22T10:19:04.830Z,100471.67
2018-12-22T10:21:34.356Z,100317.53
2018-12-22T10:24:03.889Z,100461.64
2018-12-22T10:26:33.465Z,100466.50
2018-12-22T10:29:03.041Z,100462.94
2018-12-22T10:31:32.648Z,100456.22
2018-12-22T10:34:02.233Z,100440.45
2018-12-22T10:36:31.770Z,100434.02
2018-12-22T10:39:01.378Z,100429.28
2018-12-22T10:41:30.949Z,100422.88
2018-12-22T10:44:00.581Z,100418.61
2018-12-22T10:46:30.089Z,100415.75
2018-12-22T10:48:59.578Z,100423.20
2018-12-22T10:51:29.295Z,100416.18
2018-12-22T10:53:58.868Z,100420.94
2018-12-22T10:56:28.532Z,100415.98
2018-12-22T10:58:58.279Z,100412.71
2018-12-22T11:01:27.964Z,100411.98
2018-12-22T11:03:57.484Z,100395.97
2018-12-22T11:06:26.984Z,100389.70
2018-12-22T11:08:57.275Z,100381.94
2018-12-22T11:11:26.852Z,100380.42
2018-12-22T11:13:56.489Z,100380.69
2018-12-22T11:16:26.076Z,100369.24
2018-12-22T11:18:55.568Z,100372.71
2018-12-22T11:21:25.045Z,100382.68
2018-12-22T11:23:54.669Z,100375.27
2018-12-22T11:26:24.332Z,100374.09
2018-12-22T11:28:53.893Z,100354.33
2018-12-22T11:31:23.543Z,100355.94
2018-12-22T11:33:53.112Z,100368.38
2018-12-22T11:36:22.827Z,100367.25
2018-12-22T11:38:52.451Z,100368.73
2018-12-22T11:41:22.093Z,100367.20
2018-12-22T11:43:51.728Z,100361.83
2018-12-22T11:46:21.226Z,100353.84
2018-12-22T11:49:02.097Z,100357.54
2018-12-22T11:51:31.670Z,100352.81
2018-12-22T11:54:01.197Z,100345.75
2018-12-22T11:56:30.810Z,100341.85
2018-12-22T11:59:00.284Z,100332.53
2018-12-22T12:01:29.797Z,100325.73
2018-12-22T12:03:59.416Z,100324.98
2018-12-22T12:06:28.902Z,100323.28
2018-12-22T12:08:58.384Z,100318.04
2018-12-22T12:11:28.005Z,100313.67
2018-12-22T12:13:57.489Z,100319.25
2018-12-22T12:18:54.080Z,100319.30
2018-12-22T12:21:23.637Z,100308.50
2018-12-22T12:23:53.249Z,100310.23
2018-12-22T12:26:22.798Z,100305.33
2018-12-22T12:28:52.329Z,100297.08
2018-12-22T12:31:21.940Z,100299.48
2018-12-22T12:33:51.518Z,100301.69
2018-12-22T12:36:21.040Z,100297.65
2018-12-22T12:38:50.577Z,100305.72
2018-12-22T12:41:20.168Z,100302.73
2018-12-22T12:43:50.016Z,100303.12
2018-12-22T12:46:19.612Z,100306.17
2018-12-22T12:48:49.189Z,100305.86
2018-12-22T12:51:18.729Z,100311.41
2018-12-22T12:53:48.328Z,100309.25
2018-12-22T12:56:17.848Z,100312.58
2018-12-22T12:58:47.500Z,100314.05
2018-12-22T13:01:16.974Z,100304.65
2018-12-22T13:03:46.584Z,100310.25
2018-12-22T13:06:16.133Z,100319.66
2018-12-22T13:08:45.696Z,100316.27
2018-12-22T13:11:15.500Z,100316.22
2018-12-22T13:13:54.949Z,100312.32
2018-12-22T13:16:24.505Z,100309.80
2018-12-22T13:18:54.069Z,100298.83
2018-12-22T13:21:23.660Z,100284.39
2018-12-22T13:23:53.146Z,100283.92
2018-12-22T13:26:22.748Z,100279.58
2018-12-22T13:28:52.285Z,100285.97
2018-12-22T13:31:24.725Z,100289.87
2018-12-22T13:33:54.301Z,100291.08
2018-12-22T13:36:23.889Z,100289.40
2018-12-22T13:39:06.433Z,100284.72
2018-12-22T13:41:36.894Z,100274.49
2018-12-22T13:44:06.576Z,100277.00
2018-12-22T13:46:36.145Z,100279.04
2018-12-22T13:49:05.654Z,100279.45
2018-12-22T13:51:35.350Z,100275.46
2018-12-22T13:54:04.931Z,100282.05
2018-12-22T13:56:34.552Z,100278.89
2018-12-22T13:59:04.123Z,100274.60
2018-12-22T14:01:37.453Z,100272.53
2018-12-22T14:04:07.056Z,100269.23
2018-12-22T14:06:42.934Z,100279.64
2018-12-22T14:09:12.884Z,100278.30
2018-12-22T14:11:43.389Z,100279.84
2018-12-22T14:14:18.363Z,100279.16
2018-12-22T14:17:00.793Z,100302.98
2018-12-22T14:19:30.434Z,100307.05
2018-12-22T14:22:00.229Z,100304.09
2018-12-22T14:24:35.227Z,100296.73
2018-12-22T14:27:04.876Z,100287.52
2018-12-22T14:29:34.484Z,100287.20
2018-12-22T14:32:04.082Z,100288.72
2018-12-22T14:34:38.878Z,100292.61
2018-12-22T14:37:08.445Z,100283.47
2018-12-22T14:39:38.084Z,100300.23
2018-12-22T14:42:07.697Z,100290.36
2018-12-22T14:44:37.151Z,100285.88
2018-12-22T14:47:06.752Z,100279.20
2018-12-22T14:49:36.278Z,100291.63
2018-12-22T14:52:05.945Z,100295.34
2018-12-22T14:54:35.617Z,100290.29
2018-12-22T14:57:05.196Z,100291.12
2018-12-22T14:59:34.788Z,100301.03
2018-12-22T15:02:04.328Z,100295.14
2018-12-22T15:04:34.019Z,100290.29
2018-12-22T15:07:04.277Z,100288.95
2018-12-22T15:09:33.705Z,100281.76
2018-12-22T15:12:03.284Z,100285.78
2018-12-22T15:14:32.889Z,100283.14
2018-12-22T15:17:02.450Z,100287.37
2018-12-22T15:19:33.060Z,100288.05
2018-12-22T15:22:02.713Z,100286.06
2018-12-22T15:24:32.229Z,100278.88
2018-12-22T15:27:01.785Z,100269.41
2018-12-22T15:29:31.343Z,100276.77
2018-12-22T15:32:00.880Z,100276.94
2018-12-22T15:34:30.557Z,100274.13
2018-12-22T15:37:00.224Z,100266.41
2018-12-22T15:39:29.848Z,100269.96
2018-12-22T15:41:59.325Z,100259.78
2018-12-22T15:44:29.025Z,100266.76
2018-12-22T15:46:58.552Z,100268.79
2018-12-22T15:49:28.176Z,100262.08
2018-12-22T15:51:57.745Z,100268.48
2018-12-22T15:54:27.217Z,100267.14
2018-12-22T15:56:56.845Z,100268.30
2018-12-22T15:59:26.349Z,100266.66
2018-12-22T16:01:56.060Z,100281.30
2018-12-22T16:04:25.622Z,100278.61
2018-12-22T16:06:55.196Z,100271.28
2018-12-22T16:09:24.664Z,100273.42
2018-12-22T16:11:54.198Z,100259.21
2018-12-22T16:14:23.730Z,100265.89
2018-12-22T16:16:53.301Z,100266.20
2018-12-22T16:19:22.909Z,100264.20
2018-12-22T16:21:52.437Z,100274.91
2018-12-22T16:24:21.989Z,100279.12
2018-12-22T16:26:51.574Z,100286.06
2018-12-22T16:29:28.097Z,100283.72
2018-12-22T16:31:57.628Z,100278.75
2018-12-22T16:34:27.304Z,100272.39
2018-12-22T16:36:56.872Z,100276.97
2018-12-22T16:39:26.423Z,100290.60
2018-12-22T16:41:56.134Z,100280.83
2018-12-22T16:44:25.708Z,100290.74
2018-12-22T16:46:55.244Z,100294.41
2018-12-22T16:49:24.744Z,100295.48
2018-12-22T16:51:54.241Z,100284.47
2018-12-22T16:54:23.879Z,100287.80
2018-12-22T16:56:53.449Z,100285.25
2018-12-22T16:59:23.096Z,100283.72
2018-12-22T17:02:05.321Z,100302.15
2018-12-22T17:04:35.252Z,100306.56
2018-12-22T17:07:04.864Z,100296.31
2018-12-22T17:09:34.499Z,100303.53
2018-12-22T17:12:04.106Z,100297.23
2018-12-22T17:14:33.646Z,100290.52
2018-12-22T17:17:03.323Z,100293.50
2018-12-22T17:19:32.950Z,100302.03
2018-12-22T17:22:17.373Z,100295.32
2018-12-22T17:24:58.989Z,100294.95
2018-12-22T17:27:28.613Z,100293.30
2018-12-22T17:29:58.117Z,100289.28
2018-12-22T17:32:27.689Z,100292.97
2018-12-22T17:34:57.326Z,100280.44
2018-12-22T17:37:27.017Z,100285.12
2018-12-22T17:39:56.596Z,100279.09
2018-12-22T17:42:26.173Z,100271.05
2018-12-22T17:44:55.713Z,100265.02
2018-12-22T17:47:25.324Z,100265.84
2018-12-22T17:49:54.908Z,100261.80
2018-12-22T17:52:24.653Z,100253.91
2018-12-22T17:54:54.201Z,100250.39
2018-12-22T17:57:23.689Z,100254.89
2018-12-22T17:59:53.221Z,100251.08
2018-12-22T18:02:22.694Z,100259.95
2018-12-22T18:04:52.278Z,100260.28
2018-12-22T18:07:21.857Z,100257.97
2018-12-22T18:09:51.401Z,100247.09
2018-12-22T18:12:20.855Z,100254.63
2018-12-22T18:14:50.393Z,100261.09
2018-12-22T18:17:19.949Z,100264.73
2018-12-22T18:19:49.422Z,100262.40
2018-12-22T18:22:19.037Z,100270.77
2018-12-22T18:24:48.573Z,100267.42
2018-12-22T18:27:18.289Z,100257.91
2018-12-22T18:29:47.847Z,100263.56
2018-12-22T18:32:17.472Z,100270.75
2018-12-22T18:34:47.141Z,100268.90
2018-12-22T18:37:16.739Z,100270.07
2018-12-22T18:39:46.395Z,100270.05
2018-12-22T18:42:16.479Z,100277.77
2018-12-22T18:44:46.097Z,100269.73
2018-12-22T18:47:15.661Z,100257.31
2018-12-22T18:49:45.262Z,100251.62
2018-12-22T18:52:14.844Z,100248.41
2018-12-22T18:54:44.391Z,100246.19
2018-12-22T18:57:14.009Z,100236.79
2018-12-22T18:59:43.628Z,100235.77
2018-12-22T19:02:13.204Z,100238.77
2018-12-22T19:04:42.773Z,100239.94
2018-12-22T19:07:12.264Z,100247.17
2018-12-22T19:09:42.393Z,100252.19
2018-12-22T19:12:15.317Z,100250.02
2018-12-22T19:14:53.480Z,100241.98
2018-12-22T19:17:23.081Z,100245.00
2018-12-22T19:19:53.120Z,100255.38
2018-12-22T19:22:22.617Z,100262.09
2018-12-22T19:24:52.092Z,100262.61
2018-12-22T19:27:21.624Z,100256.91
2018-12-22T19:29:51.161Z,100262.27
2018-12-22T19:32:20.765Z,100258.24
2018-12-22T19:34:50.406Z,100260.59
2018-12-22T19:37:19.930Z,100256.44
2018-12-22T19:39:49.457Z,100263.33
2018-12-22T19:42:19.119Z,100276.08
2018-12-22T19:44:48.790Z,100274.73
2018-12-22T19:47:18.424Z,100260.33
2018-12-22T19:49:48.039Z,100260.99
2018-12-22T19:52:17.681Z,100269.17
2018-12-22T19:54:47.261Z,100263.80
2018-12-22T19:57:16.916Z,100257.31
2018-12-22T19:59:46.449Z,100258.63
2018-12-22T20:02:15.950Z,100252.61
2018-12-22T20:04:45.540Z,100246.26
2018-12-22T20:07:15.062Z,100247.91
2018-12-22T20:09:44.670Z,100246.08
2018-12-22T20:12:14.266Z,100240.41
2018-12-22T20:14:43.948Z,100245.94
2018-12-22T20:17:13.622Z,100240.64
2018-12-22T20:19:43.190Z,100238.98
2018-12-22T20:22:12.788Z,100235.64
2018-12-22T20:24:42.484Z,100236.98
2018-12-22T20:27:12.183Z,100233.66
2018-12-22T20:29:41.678Z,100231.66
2018-12-22T20:32:11.310Z,100234.34
2018-12-22T20:34:40.805Z,100234.00
2018-12-22T20:37:10.461Z,100235.70
2018-12-22T20:39:40.090Z,100227.02
2018-12-22T20:42:09.593Z,100231.53
2018-12-22T20:44:39.253Z,100236.54
2018-12-22T20:47:08.836Z,100235.55
2018-12-22T20:49:38.373Z,100230.67
2018-12-22T20:52:07.940Z,100242.42
2018-12-22T20:54:37.560Z,100247.67
2018-12-22T20:57:07.084Z,100247.17
2018-12-22T20:59:36.617Z,100253.71
2018-12-22T21:02:06.209Z,100241.53
2018-12-22T21:04:35.721Z,100229.50
2018-12-22T21:07:05.530Z,100237.87
2018-12-22T21:09:35.145Z,100231.50
2018-12-22T21:12:04.754Z,100241.88
2018-12-22T21:14:34.216Z,100236.84
2018-12-22T21:17:03.893Z,100245.02
2018-12-22T21:19:33.423Z,100239.16
2018-12-22T21:22:03.219Z,100241.50
2018-12-22T21:24:32.893Z,100240.82
2018-12-22T21:27:02.383Z,100245.81
2018-12-22T21:29:31.860Z,100249.65
2018-12-22T21:32:01.437Z,100248.31
2018-12-22T21:34:31.046Z,100247.62
2018-12-22T21:37:00.664Z,100242.77
2018-12-22T21:39:30.249Z,100237.42
2018-12-22T21:41:59.844Z,100231.20
2018-12-22T21:44:29.294Z,100228.72
2018-12-22T21:46:58.829Z,100229.69
2018-12-22T21:49:28.421Z,100225.36
2018-12-22T21:51:58.048Z,100212.47
2018-12-22T21:54:27.709Z,100215.66
2018-12-22T21:56:57.178Z,100214.69
2018-12-22T21:59:26.789Z,100207.67
2018-12-22T22:01:56.429Z,100190.94
2018-12-22T22:04:26.009Z,100179.25
2018-12-22T22:06:55.580Z,100190.66
2018-12-22T22:09:25.308Z,100194.32
2018-12-22T22:11:55.060Z,100190.67
2018-12-22T22:14:24.605Z,100179.98
2018-12-22T22:16:54.124Z,100180.81
2018-12-22T22:19:23.642Z,100177.97
2018-12-22T22:21:53.277Z,100176.29
2018-12-22T22:24:22.985Z,100175.30
2018-12-22T22:26:52.451Z,100174.28
2018-12-22T22:29:21.898Z,100165.10
2018-12-22T22:31:51.430Z,100164.23
2018-12-22T22:34:21.048Z,100156.19
2018-12-22T22:36:50.633Z,100149.48
2018-12-22T22:39:20.257Z,100152.31
2018-12-22T22:41:49.754Z,100159.19
2018-12-22T22:44:19.320Z,100169.03
2018-12-22T22:46:48.905Z,100176.40
2018-12-22T22:49:18.622Z,100167.53
2018-12-22T22:51:48.221Z,100161.19
2018-12-22T22:54:17.845Z,100177.39
2018-12-22T22:56:47.320Z,100184.23
2018-12-22T22:59:16.884Z,100181.56
2018-12-22T23:01:46.520Z,100171.20
2018-12-22T23:04:16.196Z,100176.70
2018-12-22T23:06:46.117Z,100165.83
2018-12-22T23:09:15.736Z,100156.46
2018-12-22T23:11:45.429Z,100163.83
2018-12-22T23:14:15.020Z,100168.00
2018-12-22T23:16:44.542Z,100003.89
2018-12-22T23:19:14.069Z,100165.84
2018-12-22T23:21:43.565Z,100173.20
2018-12-22T23:24:13.146Z,100169.19
2018-12-22T23:26:42.740Z,100155.47
2018-12-22T23:29:12.228Z,100146.80
2018-12-22T23:31:41.868Z,100142.62
2018-12-22T23:34:11.376Z,100139.41
2018-12-22T23:36:40.905Z,100146.25
2018-12-22T23:39:10.564Z,100149.44
2018-12-22T23:41:40.184Z,100141.28
2018-12-22T23:44:09.711Z,100139.64
2018-12-22T23:46:39.406Z,100139.84
2018-12-22T23:49:08.897Z,100148.84
2018-12-22T23:51:38.745Z,100147.70
2018-12-22T23:54:08.352Z,100158.56
2018-12-22T23:56:37.916Z,100145.19
2018-12-22T23:59:07.460Z,100135.98
